createdAt,value
2022-12-13T00:01:57.041Z,81.90
2022-12-13T00:05:00.755Z,81.80
2022-12-13T00:08:04.698Z,81.80
2022-12-13T00:11:11.821Z,81.90
2022-12-13T00:14:15.567Z,81.90
2022-12-13T00:17:21.215Z,81.80
2022-12-13T00:20:24.933Z,81.90
2022-12-13T00:23:30.587Z,81.80
2022-12-13T00:26:34.786Z,81.80
2022-12-13T00:29:38.529Z,81.80
2022-12-13T00:32:44.142Z,81.80
2022-12-13T00:35:47.801Z,81.80
2022-12-13T00:38:59.766Z,81.90
2022-12-13T00:42:03.667Z,81.80
2022-12-13T00:45:08.970Z,81.80
2022-12-13T00:48:14.589Z,81.90
2022-12-13T00:51:18.415Z,81.80
2022-12-13T00:54:22.301Z,81.80
2022-12-13T00:57:26.081Z,81.80
2022-12-13T01:00:29.765Z,81.80
2022-12-13T01:03:35.521Z,81.80
2022-12-13T01:06:41.615Z,81.90
2022-12-13T01:09:45.453Z,81.80
2022-12-13T01:12:49.145Z,81.90
2022-12-13T01:15:52.888Z,81.90
2022-12-13T01:18:58.886Z,81.80
2022-12-13T01:22:05.028Z,81.80
2022-12-13T01:25:09.724Z,81.80
2022-12-13T01:28:13.431Z,81.80
2022-12-13T01:31:18.898Z,81.80
2022-12-13T01:34:26.960Z,81.80
2022-12-13T01:37:30.640Z,81.80
2022-12-13T01:40:38.582Z,81.80
2022-12-13T01:44:02.767Z,81.70
2022-12-13T01:47:06.315Z,81.70
2022-12-13T01:50:16.836Z,81.80
2022-12-13T01:53:24.325Z,81.70
2022-12-13T01:56:32.307Z,81.70
2022-12-13T01:59:37.835Z,81.80
2022-12-13T02:02:41.827Z,81.70
2022-12-13T02:05:54.992Z,81.70
2022-12-13T02:08:59.316Z,81.70
2022-12-13T02:12:03.992Z,81.80
2022-12-13T02:15:12.221Z,81.70
2022-12-13T02:18:28.127Z,81.80
2022-12-13T02:21:42.322Z,81.70
2022-12-13T02:24:56.972Z,81.80
2022-12-13T02:28:30.689Z,81.70
2022-12-13T02:31:48.317Z,81.70
2022-12-13T02:34:58.085Z,81.70
2022-12-13T02:38:06.257Z,81.70
2022-12-13T02:41:18.502Z,81.70
2022-12-13T02:44:27.267Z,81.70
2022-12-13T02:47:34.770Z,82.30
2022-12-13T02:50:39.185Z,81.70
2022-12-13T02:53:43.718Z,81.70
2022-12-13T02:56:55.629Z,81.70
2022-12-13T03:00:03.211Z,81.60
2022-12-13T03:03:18.780Z,81.70
2022-12-13T03:06:34.796Z,81.70
2022-12-13T03:09:49.303Z,81.70
2022-12-13T03:13:09.620Z,81.60
2022-12-13T03:16:23.212Z,81.70
2022-12-13T03:19:29.418Z,81.70
2022-12-13T03:22:36.020Z,81.60
2022-12-13T03:25:39.742Z,81.60
2022-12-13T03:28:43.573Z,82.30
2022-12-13T03:31:47.895Z,81.60
2022-12-13T03:34:53.682Z,81.60
2022-12-13T03:38:05.304Z,81.60
2022-12-13T03:41:12.815Z,81.60
2022-12-13T03:44:16.962Z,81.60
2022-12-13T03:47:21.587Z,81.60
2022-12-13T03:50:27.678Z,81.60
2022-12-13T03:53:33.361Z,81.60
2022-12-13T03:56:38.011Z,81.60
2022-12-13T03:59:41.739Z,81.60
2022-12-13T04:02:45.680Z,81.60
2022-12-13T04:05:51.393Z,81.60
2022-12-13T04:08:55.145Z,81.60
2022-12-13T04:12:12.119Z,81.60
2022-12-13T04:15:16.156Z,81.50
2022-12-13T04:18:20.860Z,81.50
2022-12-13T04:21:26.836Z,81.50
2022-12-13T04:24:32.411Z,81.50
2022-12-13T04:27:37.446Z,81.60
2022-12-13T04:30:41.192Z,81.60
2022-12-13T04:33:44.941Z,81.50
2022-12-13T04:36:50.592Z,81.50
2022-12-13T04:39:54.288Z,81.50
2022-12-13T04:43:04.743Z,81.50
2022-12-13T04:46:08.633Z,81.50
2022-12-13T04:49:12.385Z,81.50
2022-12-13T04:52:22.152Z,81.50
2022-12-13T04:55:26.610Z,81.50
2022-12-13T04:58:30.332Z,81.50
2022-12-13T05:01:34.074Z,81.50
2022-12-13T05:04:37.848Z,81.50
2022-12-13T05:07:43.467Z,81.50
2022-12-13T05:10:47.202Z,81.50
2022-12-13T05:13:51.108Z,81.40
2022-12-13T05:16:55.034Z,81.50
2022-12-13T05:19:58.722Z,81.40
2022-12-13T05:23:04.466Z,81.40
2022-12-13T05:26:08.251Z,81.40
2022-12-13T05:29:12.073Z,81.40
2022-12-13T05:32:15.823Z,81.40
2022-12-13T05:35:23.034Z,81.40
2022-12-13T05:38:30.070Z,81.50
2022-12-13T05:41:35.732Z,81.40
2022-12-13T05:44:39.388Z,81.40
2022-12-13T05:47:43.309Z,81.40
2022-12-13T05:50:47.037Z,81.40
2022-12-13T05:53:53.518Z,81.40
2022-12-13T05:56:57.385Z,81.40
2022-12-13T06:00:01.120Z,81.40
2022-12-13T06:03:05.341Z,81.30
2022-12-13T06:06:11.377Z,81.30
2022-12-13T06:09:17.113Z,81.30
2022-12-13T06:12:31.821Z,81.40
2022-12-13T06:15:36.394Z,81.40
2022-12-13T06:18:51.389Z,81.30
2022-12-13T06:21:56.871Z,81.30
2022-12-13T06:25:02.991Z,81.40
2022-12-13T06:28:06.989Z,81.30
2022-12-13T06:31:10.848Z,81.30
2022-12-13T06:34:15.444Z,81.30
2022-12-13T06:37:19.344Z,81.30
2022-12-13T06:40:25.039Z,81.30
2022-12-13T06:43:28.909Z,81.30
2022-12-13T06:46:32.779Z,81.30
2022-12-13T06:49:36.629Z,81.30
2022-12-13T06:52:40.319Z,81.20
2022-12-13T06:55:46.373Z,81.30
2022-12-13T06:58:50.334Z,81.20
2022-12-13T07:01:54.096Z,81.30
2022-12-13T07:05:08.517Z,81.20
2022-12-13T07:08:12.289Z,81.20
2022-12-13T07:11:19.825Z,81.20
2022-12-13T07:14:24.252Z,81.20
2022-12-13T07:17:31.902Z,81.20
2022-12-13T07:20:40.654Z,81.20
2022-12-13T07:23:44.446Z,81.20
2022-12-13T07:26:50.424Z,81.20
2022-12-13T07:29:54.203Z,81.20
2022-12-13T07:32:57.956Z,81.30
2022-12-13T07:36:06.422Z,81.20
2022-12-13T07:39:10.188Z,81.20
2022-12-13T07:42:16.020Z,81.20
2022-12-13T07:45:20.169Z,81.20
2022-12-13T07:48:23.995Z,81.20
2022-12-13T07:51:28.087Z,81.20
2022-12-13T07:54:31.816Z,81.20
2022-12-13T07:57:37.509Z,81.30
2022-12-13T08:00:46.141Z,81.20
2022-12-13T08:03:50.706Z,81.30
2022-12-13T08:06:54.422Z,81.30
2022-12-13T08:09:58.166Z,81.20
2022-12-13T08:13:06.105Z,81.90
2022-12-13T08:16:27.973Z,81.30
2022-12-13T08:19:32.876Z,81.30
2022-12-13T08:22:36.793Z,81.30
2022-12-13T08:25:40.520Z,81.30
2022-12-13T08:28:46.143Z,81.30
2022-12-13T08:31:49.858Z,81.30
2022-12-13T08:34:56.193Z,81.40
2022-12-13T08:37:59.992Z,81.40
2022-12-13T08:41:04.906Z,81.40
2022-12-13T08:44:10.655Z,81.40
2022-12-13T08:47:22.992Z,81.40
2022-12-13T08:50:29.237Z,81.40
2022-12-13T08:53:41.111Z,81.50
2022-12-13T08:56:45.311Z,81.50
2022-12-13T08:59:50.989Z,81.50
2022-12-13T09:02:58.738Z,81.50
2022-12-13T09:06:09.905Z,81.60
2022-12-13T09:09:13.684Z,81.50
2022-12-13T09:12:29.483Z,81.50
2022-12-13T09:15:45.886Z,81.60
2022-12-13T09:18:55.128Z,81.60
2022-12-13T09:22:02.550Z,81.70
2022-12-13T09:25:08.727Z,81.60
2022-12-13T09:28:19.655Z,81.60
2022-12-13T09:31:25.302Z,81.60
2022-12-13T09:34:29.534Z,81.70
2022-12-13T09:37:33.918Z,81.80
2022-12-13T09:40:40.127Z,81.70
2022-12-13T09:43:46.124Z,81.90
2022-12-13T09:46:53.957Z,81.90
2022-12-13T09:50:14.651Z,81.90
2022-12-13T09:53:21.229Z,81.90
2022-12-13T09:56:26.337Z,81.90
2022-12-13T09:59:32.913Z,82.00
2022-12-13T10:02:44.688Z,82.00
2022-12-13T10:05:58.235Z,82.10
2022-12-13T10:09:02.580Z,82.10
2022-12-13T10:12:06.691Z,82.20
2022-12-13T10:15:14.122Z,82.40
2022-12-13T10:18:34.770Z,82.40
2022-12-13T10:21:42.673Z,82.40
2022-12-13T10:24:52.396Z,82.40
2022-12-13T10:27:56.125Z,82.50
2022-12-13T10:31:00.619Z,82.50
2022-12-13T10:34:06.385Z,82.50
2022-12-13T10:37:27.737Z,82.50
2022-12-13T10:40:35.624Z,82.40
2022-12-13T10:43:41.745Z,82.40
2022-12-13T10:46:51.912Z,82.40
2022-12-13T10:50:00.721Z,82.40
2022-12-13T10:53:07.746Z,82.40
2022-12-13T10:56:13.115Z,82.40
2022-12-13T10:59:29.112Z,82.40
2022-12-13T11:02:36.432Z,82.40
2022-12-13T11:05:43.616Z,82.40
2022-12-13T11:08:47.390Z,82.50
2022-12-13T11:11:58.271Z,82.50
2022-12-13T11:15:05.964Z,82.50
2022-12-13T11:18:22.659Z,82.50
2022-12-13T11:21:31.847Z,82.50
2022-12-13T11:24:38.884Z,82.60
2022-12-13T11:28:00.246Z,82.60
2022-12-13T11:31:14.845Z,82.60
2022-12-13T11:34:27.929Z,82.60
2022-12-13T11:37:41.805Z,82.60
2022-12-13T11:40:47.882Z,82.60
2022-12-13T11:43:56.893Z,82.70
2022-12-13T11:47:02.250Z,82.60
2022-12-13T11:50:20.476Z,82.70
2022-12-13T11:53:47.469Z,82.80
2022-12-13T11:56:54.898Z,82.80
2022-12-13T12:00:13.051Z,82.80
2022-12-13T12:03:19.979Z,82.80
2022-12-13T12:06:30.041Z,82.80
2022-12-13T12:09:37.780Z,82.70
2022-12-13T12:12:45.169Z,82.80
2022-12-13T12:15:55.451Z,82.80
2022-12-13T12:19:01.239Z,82.80
2022-12-13T12:22:22.827Z,82.80
2022-12-13T12:25:42.423Z,82.80
2022-12-13T12:29:14.178Z,82.80
2022-12-13T12:32:32.925Z,82.80
2022-12-13T12:35:52.318Z,82.80
2022-12-13T12:39:28.788Z,82.90
2022-12-13T12:43:17.984Z,82.90
2022-12-13T12:47:08.782Z,82.90
2022-12-13T12:50:15.290Z,82.90
2022-12-13T12:53:41.167Z,82.80
2022-12-13T12:56:54.942Z,82.90
2022-12-13T13:00:06.012Z,82.90
2022-12-13T13:03:22.677Z,82.90
2022-12-13T13:06:31.659Z,82.90
2022-12-13T13:09:36.146Z,82.90
2022-12-13T13:12:43.483Z,82.90
2022-12-13T13:15:59.376Z,82.80
2022-12-13T13:19:04.190Z,82.90
2022-12-13T13:22:32.083Z,82.90
2022-12-13T13:25:53.985Z,82.90
2022-12-13T13:29:32.695Z,83.50
2022-12-13T13:32:41.323Z,82.80
2022-12-13T13:35:49.711Z,82.80
2022-12-13T13:39:01.019Z,82.90
2022-12-13T13:42:20.372Z,82.80
2022-12-13T13:45:26.523Z,82.90
2022-12-13T13:48:52.027Z,82.90
2022-12-13T13:52:27.662Z,82.80
2022-12-13T13:55:58.605Z,82.80
2022-12-13T13:59:38.260Z,82.90
2022-12-13T14:03:35.300Z,82.80
2022-12-13T14:07:12.150Z,82.80
2022-12-13T14:10:41.162Z,82.80
2022-12-13T14:14:22.305Z,82.80
2022-12-13T14:17:55.673Z,82.80
2022-12-13T14:21:10.192Z,82.80
2022-12-13T14:24:22.349Z,82.70
2022-12-13T14:27:44.458Z,82.80
2022-12-13T14:30:57.586Z,82.70
2022-12-13T14:34:03.167Z,82.80
2022-12-13T14:37:20.159Z,82.80
2022-12-13T14:40:30.915Z,82.80
2022-12-13T14:43:37.280Z,82.80
2022-12-13T14:46:50.638Z,82.70
2022-12-13T14:49:57.036Z,82.80
2022-12-13T14:53:04.095Z,82.80
2022-12-13T14:56:10.492Z,82.80
2022-12-13T14:59:34.155Z,82.80
2022-12-13T15:02:37.891Z,82.70
2022-12-13T15:05:50.305Z,83.30
2022-12-13T15:08:55.427Z,82.70
2022-12-13T15:12:23.571Z,82.70
2022-12-13T15:15:32.608Z,82.70
2022-12-13T15:18:36.337Z,82.70
2022-12-13T15:21:42.968Z,82.70
2022-12-13T15:24:57.363Z,82.70
2022-12-13T15:28:09.305Z,82.70
2022-12-13T15:31:16.050Z,82.70
2022-12-13T15:34:28.482Z,82.70
2022-12-13T15:37:35.325Z,82.70
2022-12-13T15:40:39.181Z,82.70
2022-12-13T15:43:45.933Z,82.70
2022-12-13T15:46:53.892Z,82.70
2022-12-13T15:49:59.498Z,82.70
2022-12-13T15:53:07.869Z,82.80
2022-12-13T15:56:31.060Z,82.80
2022-12-13T15:59:37.022Z,82.70
2022-12-13T16:02:53.209Z,82.70
2022-12-13T16:05:58.603Z,82.70
2022-12-13T16:09:07.222Z,82.70
2022-12-13T16:12:24.341Z,82.70
2022-12-13T16:15:30.295Z,82.70
2022-12-13T16:18:45.122Z,82.70
2022-12-13T16:21:49.106Z,82.70
2022-12-13T16:24:55.769Z,82.70
2022-12-13T16:27:59.440Z,82.70
2022-12-13T16:31:16.477Z,82.70
2022-12-13T16:34:26.306Z,82.70
2022-12-13T16:37:30.226Z,82.70
2022-12-13T16:40:34.110Z,82.70
2022-12-13T16:43:42.026Z,82.70
2022-12-13T16:47:13.097Z,83.30
2022-12-13T16:50:16.682Z,82.70
2022-12-13T16:53:20.722Z,82.60
2022-12-13T16:56:24.464Z,82.70
2022-12-13T16:59:28.882Z,82.70
2022-12-13T17:02:32.696Z,82.70
2022-12-13T17:05:38.890Z,82.70
2022-12-13T17:08:42.753Z,82.70
2022-12-13T17:11:47.034Z,82.70
2022-12-13T17:14:51.331Z,82.70
2022-12-13T17:17:55.489Z,82.60
2022-12-13T17:21:07.170Z,82.70
2022-12-13T17:24:10.959Z,82.70
2022-12-13T17:27:15.164Z,83.30
2022-12-13T17:30:20.011Z,82.70
2022-12-13T17:33:24.029Z,82.70
2022-12-13T17:36:30.724Z,82.70
2022-12-13T17:39:34.509Z,82.70
2022-12-13T17:42:38.466Z,82.70
2022-12-13T17:45:43.152Z,82.70
2022-12-13T17:48:47.434Z,82.70
2022-12-13T17:51:53.792Z,82.80
2022-12-13T17:54:59.473Z,82.70
2022-12-13T17:58:04.776Z,82.80
2022-12-13T18:01:13.752Z,82.70
2022-12-13T18:04:17.629Z,82.70
2022-12-13T18:07:23.475Z,82.70
2022-12-13T18:10:29.962Z,82.80
2022-12-13T18:13:34.387Z,82.70
2022-12-13T18:16:39.273Z,82.70
2022-12-13T18:19:43.186Z,82.80
2022-12-13T18:22:51.557Z,82.70
2022-12-13T18:26:00.932Z,82.70
2022-12-13T18:29:05.994Z,82.70
2022-12-13T18:32:09.761Z,82.70
2022-12-13T18:35:13.558Z,82.80
2022-12-13T18:38:19.227Z,82.70
2022-12-13T18:41:27.437Z,82.80
2022-12-13T18:44:31.154Z,82.70
2022-12-13T18:47:34.974Z,82.70
2022-12-13T18:50:38.837Z,82.70
2022-12-13T18:53:44.495Z,82.70
2022-12-13T18:56:48.245Z,82.70
2022-12-13T18:59:54.427Z,82.80
2022-12-13T19:02:58.627Z,82.80
2022-12-13T19:06:02.920Z,82.70
2022-12-13T19:09:08.760Z,82.80
2022-12-13T19:12:12.449Z,82.80
2022-12-13T19:19:08.970Z,82.80
2022-12-13T19:22:12.721Z,82.80
2022-12-13T19:25:19.918Z,82.70
2022-12-13T19:28:23.654Z,82.70
2022-12-13T19:31:31.582Z,82.70
2022-12-13T19:34:36.128Z,82.80
2022-12-13T19:37:39.717Z,82.80
2022-12-13T19:40:46.058Z,82.90
2022-12-13T19:43:53.031Z,82.70
2022-12-13T19:46:58.552Z,82.80
2022-12-13T19:50:02.332Z,82.80
2022-12-13T19:53:06.404Z,82.80
2022-12-13T19:56:14.595Z,82.80
2022-12-13T19:59:18.387Z,82.80
2022-12-13T20:02:22.139Z,82.80
2022-12-13T20:05:25.869Z,82.80
2022-12-13T20:08:30.058Z,82.80
2022-12-13T20:11:35.700Z,82.80
2022-12-13T20:14:39.503Z,82.70
2022-12-13T20:17:43.250Z,82.80
2022-12-13T20:21:10.629Z,82.80
2022-12-13T20:24:11.363Z,82.80
2022-12-13T20:27:18.088Z,82.90
2022-12-13T20:30:21.833Z,82.80
2022-12-13T20:33:25.857Z,82.80
2022-12-13T20:36:30.800Z,82.80
2022-12-13T20:39:34.530Z,82.70
2022-12-13T20:42:40.309Z,82.70
2022-12-13T20:45:44.727Z,82.70
2022-12-13T20:48:49.657Z,82.70
2022-12-13T20:51:53.416Z,82.80
2022-12-13T20:54:57.083Z,82.80
2022-12-13T20:58:02.787Z,82.90
2022-12-13T21:01:07.662Z,82.80
2022-12-13T21:04:12.398Z,82.80
2022-12-13T21:07:36.686Z,82.90
2022-12-13T21:10:41.711Z,82.90
2022-12-13T21:13:48.291Z,82.90
2022-12-13T21:16:55.728Z,82.90
2022-12-13T21:19:59.458Z,82.90
2022-12-13T21:23:03.238Z,82.90
2022-12-13T21:26:07.700Z,82.90
2022-12-13T21:29:15.598Z,82.80
2022-12-13T21:32:19.433Z,82.90
2022-12-13T21:35:23.199Z,82.80
2022-12-13T21:38:26.916Z,82.90
2022-12-13T21:41:30.986Z,82.90
2022-12-13T21:44:36.587Z,82.90
2022-12-13T21:47:40.293Z,82.90
2022-12-13T21:50:50.361Z,82.90
2022-12-13T21:53:54.675Z,82.90
2022-12-13T21:57:11.582Z,82.80
2022-12-13T22:00:17.985Z,82.80
2022-12-13T22:03:21.684Z,82.90
2022-12-13T22:06:25.145Z,82.80
2022-12-13T22:09:28.911Z,82.80
2022-12-13T22:12:35.122Z,82.70
2022-12-13T22:15:40.756Z,82.80
2022-12-13T22:18:44.968Z,82.70
2022-12-13T22:21:48.992Z,82.80
2022-12-13T22:24:53.691Z,82.80
2022-12-13T22:27:58.774Z,82.80
2022-12-13T22:31:04.542Z,82.80
2022-12-13T22:34:08.635Z,82.80
2022-12-13T22:37:12.410Z,82.80
2022-12-13T22:40:16.199Z,82.80
2022-12-13T22:43:20.800Z,82.80
2022-12-13T22:46:26.603Z,82.80
2022-12-13T22:49:30.368Z,82.80
2022-12-13T22:52:34.407Z,82.80
2022-12-13T22:55:39.189Z,82.80
2022-12-13T22:58:43.480Z,82.80
2022-12-13T23:01:49.378Z,82.80
2022-12-13T23:04:53.500Z,82.80
2022-12-13T23:07:57.149Z,82.80
2022-12-13T23:11:13.786Z,82.80
2022-12-13T23:14:19.530Z,82.70
2022-12-13T23:17:25.152Z,82.70
2022-12-13T23:20:28.953Z,82.60
2022-12-13T23:23:32.941Z,82.70
2022-12-13T23:26:37.109Z,82.70
2022-12-13T23:29:40.870Z,82.60
2022-12-13T23:32:46.702Z,82.70
2022-12-13T23:35:59.298Z,82.50
2022-12-13T23:39:04.959Z,82.60
2022-12-13T23:42:08.982Z,82.60
2022-12-13T23:45:13.083Z,82.60
2022-12-13T23:48:23.719Z,82.60
2022-12-13T23:51:30.638Z,82.60
2022-12-13T23:54:34.402Z,82.60
2022-12-13T23:57:37.854Z,82.60
